createdAt,value
2023-03-16T00:00:54.037Z,1.73
2023-03-16T00:05:57.690Z,1.40
2023-03-16T00:11:01.356Z,1.50
2023-03-16T00:16:08.094Z,1.65
2023-03-16T00:21:14.531Z,1.55
2023-03-16T00:26:18.164Z,1.30
2023-03-16T00:31:23.494Z,1.65
2023-03-16T00:36:27.154Z,1.40
2023-03-16T00:41:30.776Z,1.70
2023-03-16T00:46:36.082Z,1.67
2023-03-16T00:51:39.712Z,1.40
2023-03-16T00:56:43.376Z,1.70
2023-03-16T01:01:48.974Z,2.03
2023-03-16T01:06:52.980Z,1.67
2023-03-16T01:11:56.718Z,1.80
2023-03-16T01:17:03.570Z,1.73
2023-03-16T01:22:08.742Z,1.70
2023-03-16T01:27:13.916Z,2.00
2023-03-16T01:32:19.222Z,1.70
2023-03-16T01:37:22.857Z,1.52
2023-03-16T01:42:26.509Z,1.30
2023-03-16T01:47:31.825Z,1.70
2023-03-16T01:52:38.352Z,1.43
2023-03-16T01:57:46.121Z,1.88
2023-03-16T02:02:57.168Z,1.48
2023-03-16T02:08:04.196Z,1.55
2023-03-16T02:13:08.366Z,1.50
2023-03-16T02:18:14.514Z,1.45
2023-03-16T02:23:21.901Z,1.63
2023-03-16T02:28:32.008Z,1.85
2023-03-16T02:33:37.591Z,1.70
2023-03-16T02:38:41.539Z,2.30
2023-03-16T02:43:49.468Z,2.00
2023-03-16T02:49:00.279Z,1.80
2023-03-16T02:54:03.997Z,1.95
2023-03-16T02:59:07.928Z,1.35
2023-03-16T03:04:13.701Z,1.60
2023-03-16T03:09:17.383Z,1.50
2023-03-16T03:14:21.000Z,1.92
2023-03-16T03:19:26.358Z,1.50
2023-03-16T03:24:30.045Z,1.50
2023-03-16T03:29:33.815Z,2.60
2023-03-16T03:34:39.149Z,2.30
2023-03-16T03:39:42.798Z,2.67
2023-03-16T03:44:46.448Z,2.38
2023-03-16T03:49:51.800Z,2.25
2023-03-16T03:54:55.432Z,2.40
2023-03-16T03:59:59.077Z,1.65
2023-03-16T04:05:04.580Z,1.90
2023-03-16T04:10:09.382Z,1.70
2023-03-16T04:15:13.419Z,1.98
2023-03-16T04:20:18.979Z,2.15
2023-03-16T04:25:22.646Z,2.03
2023-03-16T04:30:26.674Z,2.13
2023-03-16T04:35:32.974Z,1.63
2023-03-16T04:40:36.686Z,2.10
2023-03-16T04:45:40.409Z,1.85
2023-03-16T04:50:46.479Z,2.05
2023-03-16T04:55:50.257Z,1.70
2023-03-16T05:00:54.398Z,1.42
2023-03-16T05:06:12.292Z,2.05
2023-03-16T05:11:15.939Z,1.98
2023-03-16T05:16:19.653Z,1.83
2023-03-16T05:21:25.008Z,1.77
2023-03-16T05:26:28.732Z,1.60
2023-03-16T05:31:32.836Z,1.65
2023-03-16T05:36:39.117Z,1.80
2023-03-16T05:46:46.519Z,1.65
2023-03-16T05:51:51.886Z,2.20
2023-03-16T05:56:55.516Z,1.87
2023-03-16T06:01:59.145Z,1.42
2023-03-16T06:07:05.698Z,1.40
2023-03-16T06:12:09.704Z,1.38
2023-03-16T06:17:13.470Z,2.20
2023-03-16T06:22:18.850Z,1.95
2023-03-16T06:27:22.535Z,2.00
2023-03-16T06:32:26.306Z,1.80
2023-03-16T06:37:32.036Z,1.60
2023-03-16T06:42:35.800Z,1.80
2023-03-16T06:47:39.471Z,1.95
2023-03-16T06:52:44.819Z,1.98
2023-03-16T06:57:48.446Z,1.45
2023-03-16T07:02:52.090Z,1.63
2023-03-16T07:07:57.399Z,1.60
2023-03-16T07:13:01.023Z,1.55
2023-03-16T07:18:04.717Z,1.80
2023-03-16T07:23:09.999Z,1.65
2023-03-16T07:28:13.693Z,1.88
2023-03-16T07:33:17.335Z,1.75
2023-03-16T07:38:22.614Z,1.40
2023-03-16T07:43:26.321Z,1.35
2023-03-16T07:48:29.965Z,1.58
2023-03-16T07:53:35.272Z,1.52
2023-03-16T07:58:39.328Z,1.50
2023-03-16T08:03:43.133Z,1.90
2023-03-16T08:08:48.514Z,1.58
2023-03-16T08:13:52.362Z,1.63
2023-03-16T08:18:57.937Z,1.85
2023-03-16T08:24:03.261Z,1.60
2023-03-16T08:29:06.956Z,2.10
2023-03-16T08:34:10.693Z,1.67
2023-03-16T08:39:16.005Z,1.58
2023-03-16T08:44:19.633Z,1.88
2023-03-16T08:49:23.236Z,1.65
2023-03-16T08:54:28.510Z,1.65
2023-03-16T08:59:32.162Z,1.60
2023-03-16T09:04:35.827Z,1.70
2023-03-16T09:09:41.180Z,1.35
2023-03-16T09:14:44.824Z,1.70
2023-03-16T09:19:51.483Z,1.67
2023-03-16T09:24:57.546Z,1.52
2023-03-16T09:30:01.285Z,1.60
2023-03-16T09:35:05.592Z,1.70
2023-03-16T09:40:21.849Z,1.55
2023-03-16T09:45:33.144Z,1.70
2023-03-16T09:50:48.312Z,1.55
2023-03-16T09:55:58.799Z,1.60
2023-03-16T10:01:10.791Z,1.60
2023-03-16T10:06:15.089Z,1.50
2023-03-16T10:11:31.830Z,1.60
2023-03-16T10:21:42.843Z,1.60
2023-03-16T10:26:54.364Z,1.42
2023-03-16T10:32:03.064Z,1.60
2023-03-16T10:37:10.743Z,2.03
2023-03-16T10:42:22.118Z,1.95
2023-03-16T10:47:29.627Z,1.92
2023-03-16T10:52:38.926Z,1.60
2023-03-16T10:57:49.415Z,1.67
2023-03-16T11:02:54.438Z,1.70
2023-03-16T11:08:02.223Z,2.17
2023-03-16T11:13:13.646Z,1.70
2023-03-16T11:18:28.078Z,1.92
2023-03-16T11:23:34.933Z,1.98
2023-03-16T11:28:44.862Z,1.73
2023-03-16T11:33:49.049Z,2.10
2023-03-16T11:39:03.677Z,2.10
2023-03-16T11:44:16.436Z,1.98
2023-03-16T11:49:41.820Z,2.30
2023-03-16T11:54:59.992Z,2.03
2023-03-16T12:00:27.199Z,2.40
2023-03-16T12:05:56.240Z,2.25
2023-03-16T12:11:03.910Z,2.30
2023-03-16T12:16:16.243Z,2.70
2023-03-16T12:21:23.280Z,2.35
2023-03-16T12:26:29.557Z,2.65
2023-03-16T12:31:44.729Z,2.70
2023-03-16T12:37:12.119Z,2.55
2023-03-16T12:42:30.571Z,3.10
2023-03-16T12:47:47.547Z,3.58
2023-03-16T12:52:52.941Z,3.20
2023-03-16T12:58:02.675Z,2.83
2023-03-16T13:03:15.004Z,2.90
2023-03-16T13:08:20.509Z,2.92
2023-03-16T13:13:24.871Z,2.80
2023-03-16T13:18:36.569Z,2.42
2023-03-16T13:23:56.023Z,2.92
2023-03-16T13:29:00.213Z,2.40
2023-03-16T13:34:12.868Z,2.72
2023-03-16T13:39:19.025Z,2.53
2023-03-16T13:44:24.826Z,2.50
2023-03-16T13:49:30.186Z,2.40
2023-03-16T13:54:37.164Z,2.40
2023-03-16T13:59:40.968Z,2.22
2023-03-16T14:04:46.498Z,2.15
2023-03-16T14:09:50.512Z,1.85
2023-03-16T14:14:56.730Z,2.03
2023-03-16T14:20:02.450Z,2.38
2023-03-16T14:25:07.974Z,2.23
2023-03-16T14:30:18.451Z,1.92
2023-03-16T14:35:26.020Z,2.20
2023-03-16T14:40:31.421Z,2.33
2023-03-16T14:45:37.349Z,2.30
2023-03-16T14:50:42.676Z,2.20
2023-03-16T14:55:46.333Z,2.20
2023-03-16T15:00:53.170Z,2.25
2023-03-16T15:05:58.818Z,2.13
2023-03-16T15:11:04.973Z,2.33
2023-03-16T15:16:11.486Z,2.40
2023-03-16T15:26:25.323Z,2.95
2023-03-16T15:31:29.743Z,2.55
2023-03-16T15:36:35.173Z,2.58
2023-03-16T15:41:47.603Z,2.25
2023-03-16T15:46:51.687Z,1.98
2023-03-16T15:51:56.996Z,1.98
2023-03-16T15:57:00.921Z,2.00
2023-03-16T16:02:22.271Z,1.60
2023-03-16T16:07:27.745Z,1.90
2023-03-16T16:12:32.421Z,1.50
2023-03-16T16:17:50.495Z,1.63
2023-03-16T16:22:59.363Z,1.90
2023-03-16T16:28:03.922Z,1.80
2023-03-16T16:33:24.803Z,1.77
2023-03-16T16:38:30.537Z,2.20
2023-03-16T16:43:37.642Z,2.28
2023-03-16T16:48:44.685Z,2.15
2023-03-16T16:53:51.088Z,2.05
2023-03-16T16:58:55.028Z,2.42
2023-03-16T17:03:58.699Z,2.15
2023-03-16T17:09:04.838Z,2.50
2023-03-16T17:19:19.908Z,2.50
2023-03-16T17:24:25.837Z,2.30
2023-03-16T17:34:34.860Z,2.42
2023-03-16T17:39:40.225Z,2.67
2023-03-16T17:44:46.023Z,2.77
2023-03-16T17:49:49.707Z,2.78
2023-03-16T17:54:55.251Z,3.50
2023-03-16T17:59:59.260Z,3.50
2023-03-16T18:05:02.917Z,3.00
2023-03-16T18:10:14.346Z,2.92
2023-03-16T18:15:19.080Z,3.33
2023-03-16T18:20:25.841Z,2.55
2023-03-16T18:25:34.320Z,2.95
2023-03-16T18:30:39.580Z,3.65
2023-03-16T18:35:43.815Z,2.97
2023-03-16T18:40:49.109Z,2.42
2023-03-16T18:45:54.787Z,2.90
2023-03-16T18:56:04.176Z,2.30
2023-03-16T19:01:13.118Z,2.25
2023-03-16T19:06:23.619Z,2.25
2023-03-16T19:11:28.955Z,2.30
2023-03-16T19:16:32.890Z,2.17
2023-03-16T19:21:36.768Z,2.42
2023-03-16T19:26:42.117Z,2.50
2023-03-16T19:31:45.929Z,2.30
2023-03-16T19:36:49.791Z,2.70
2023-03-16T19:41:58.082Z,2.60
2023-03-16T19:47:01.785Z,2.47
2023-03-16T19:52:11.400Z,2.80
2023-03-16T19:57:18.789Z,2.40
2023-03-16T20:02:27.172Z,2.50
2023-03-16T20:07:30.809Z,2.80
2023-03-16T20:12:37.576Z,2.65
2023-03-16T20:17:41.625Z,2.67
2023-03-16T20:22:45.258Z,2.78
2023-03-16T20:27:54.853Z,2.90
2023-03-16T20:32:58.842Z,2.58
2023-03-16T20:38:02.518Z,2.50
2023-03-16T20:43:26.646Z,3.00
2023-03-16T20:48:30.507Z,3.00
2023-03-16T20:53:34.149Z,2.88
2023-03-16T20:58:41.923Z,3.33
2023-03-16T21:03:48.638Z,2.92
2023-03-16T21:08:53.571Z,2.78
2023-03-16T21:13:59.120Z,2.93
2023-03-16T21:19:02.768Z,2.65
2023-03-16T21:24:06.941Z,2.90
2023-03-16T21:29:16.762Z,2.83
2023-03-16T21:34:24.927Z,2.65
2023-03-16T21:39:29.131Z,2.83
2023-03-16T21:44:34.428Z,2.58
2023-03-16T21:49:38.162Z,2.45
2023-03-16T21:54:41.827Z,2.65
2023-03-16T21:59:47.257Z,2.33
2023-03-16T22:04:52.552Z,2.70
2023-03-16T22:09:56.226Z,2.50
2023-03-16T22:15:01.527Z,2.80
2023-03-16T22:20:16.634Z,2.47
2023-03-16T22:25:22.157Z,2.47
2023-03-16T22:30:28.964Z,2.70
2023-03-16T22:35:36.302Z,2.60
2023-03-16T22:40:40.612Z,2.42
2023-03-16T22:45:46.032Z,2.92
2023-03-16T22:50:50.871Z,2.80
2023-03-16T22:55:56.211Z,2.80
2023-03-16T23:01:07.048Z,2.88
2023-03-16T23:06:16.732Z,2.65
2023-03-16T23:11:23.476Z,2.60
2023-03-16T23:16:30.472Z,2.58
2023-03-16T23:21:34.182Z,2.70
2023-03-16T23:26:38.804Z,2.33
2023-03-16T23:31:44.125Z,2.20
2023-03-16T23:36:47.932Z,2.47
2023-03-16T23:41:52.887Z,2.40
2023-03-16T23:46:59.588Z,2.80
2023-03-16T23:52:03.337Z,2.50
2023-03-16T23:57:07.006Z,2.58
